createdAt,value
2018-11-07T00:00:24.435Z,9.90
2018-11-07T00:02:52.940Z,7.37
2018-11-07T00:05:21.421Z,9.23
2018-11-07T00:07:49.964Z,9.87
2018-11-07T00:10:18.407Z,12.68
2018-11-07T00:12:46.903Z,12.20
2018-11-07T00:15:16.229Z,12.53
2018-11-07T00:17:44.678Z,14.97
2018-11-07T00:20:13.619Z,18.20
2018-11-07T00:22:42.091Z,13.37
2018-11-07T00:25:11.747Z,17.70
2018-11-07T00:27:41.053Z,14.37
2018-11-07T00:30:11.283Z,15.60
2018-11-07T00:32:40.171Z,11.60
2018-11-07T00:35:10.023Z,19.40
2018-11-07T00:38:08.969Z,14.77
2018-11-07T00:40:37.454Z,28.00
2018-11-07T00:43:06.273Z,16.80
2018-11-07T00:45:34.824Z,15.58
2018-11-07T00:48:03.625Z,15.80
2018-11-07T00:50:32.075Z,13.75
2018-11-07T00:53:00.561Z,17.87
2018-11-07T00:55:28.985Z,17.10
2018-11-07T00:57:57.464Z,17.83
2018-11-07T01:00:25.928Z,14.83
2018-11-07T01:02:54.515Z,13.47
2018-11-07T01:05:22.957Z,15.37
2018-11-07T01:07:51.452Z,13.57
2018-11-07T01:10:19.983Z,22.00
2018-11-07T01:12:48.477Z,30.23
2018-11-07T01:15:17.007Z,14.90
2018-11-07T01:17:45.459Z,11.93
2018-11-07T01:20:14.980Z,27.40
2018-11-07T01:22:44.315Z,17.10
2018-11-07T01:25:12.833Z,19.03
2018-11-07T01:27:41.549Z,17.50
2018-11-07T01:30:12.061Z,25.37
2018-11-07T01:32:40.701Z,17.00
2018-11-07T01:35:09.464Z,19.80
2018-11-07T01:37:38.099Z,17.30
2018-11-07T01:40:09.117Z,25.23
2018-11-07T01:42:37.578Z,26.95
2018-11-07T01:45:07.232Z,21.55
2018-11-07T01:47:35.973Z,18.93
2018-11-07T01:50:05.205Z,22.23
2018-11-07T01:52:33.684Z,18.17
2018-11-07T01:55:02.165Z,22.33
2018-11-07T01:57:30.669Z,22.00
2018-11-07T02:00:29.569Z,20.17
2018-11-07T02:02:58.055Z,18.82
2018-11-07T02:05:26.550Z,21.50
2018-11-07T02:07:55.055Z,20.80
2018-11-07T02:10:23.596Z,13.77
2018-11-07T02:12:52.063Z,22.83
2018-11-07T02:15:20.984Z,27.87
2018-11-07T02:17:49.476Z,32.57
2018-11-07T02:20:17.968Z,27.53
2018-11-07T02:22:46.444Z,23.83
2018-11-07T02:25:14.929Z,21.83
2018-11-07T02:27:43.430Z,25.70
2018-11-07T02:30:14.327Z,24.10
2018-11-07T02:32:42.867Z,24.07
2018-11-07T02:35:11.370Z,19.47
2018-11-07T02:37:39.905Z,23.65
2018-11-07T02:40:09.208Z,24.65
2018-11-07T02:42:37.883Z,22.62
2018-11-07T02:45:06.654Z,15.30
2018-11-07T02:47:41.276Z,33.28
2018-11-07T02:50:10.470Z,30.63
2018-11-07T02:52:38.939Z,31.67
2018-11-07T02:55:07.675Z,26.23
2018-11-07T02:57:36.274Z,29.00
2018-11-07T03:00:06.344Z,21.60
2018-11-07T03:02:34.812Z,23.67
2018-11-07T03:05:03.327Z,23.45
2018-11-07T03:07:31.768Z,26.03
2018-11-07T03:10:00.263Z,21.03
2018-11-07T03:12:29.488Z,20.80
2018-11-07T03:14:57.924Z,24.97
2018-11-07T03:17:26.396Z,18.03
2018-11-07T03:19:54.872Z,25.20
2018-11-07T03:22:23.356Z,25.60
2018-11-07T03:24:51.836Z,21.77
2018-11-07T03:27:20.371Z,25.40
2018-11-07T03:29:48.833Z,30.77
2018-11-07T03:32:17.421Z,19.23
2018-11-07T03:34:45.923Z,22.25
2018-11-07T03:37:14.411Z,21.70
2018-11-07T03:39:43.053Z,20.50
2018-11-07T03:42:11.504Z,21.87
2018-11-07T03:44:39.993Z,36.90
2018-11-07T03:47:08.580Z,26.27
2018-11-07T03:49:37.116Z,26.40
2018-11-07T03:52:05.570Z,20.13
2018-11-07T03:54:34.429Z,19.25
2018-11-07T03:57:02.949Z,24.83
2018-11-07T03:59:31.541Z,20.90
2018-11-07T04:01:59.994Z,20.37
2018-11-07T04:04:28.480Z,22.90
2018-11-07T04:06:56.961Z,21.97
2018-11-07T04:09:25.390Z,26.37
2018-11-07T04:11:53.851Z,28.80
2018-11-07T04:14:22.335Z,21.93
2018-11-07T04:16:51.467Z,23.55
2018-11-07T04:19:19.932Z,29.47
2018-11-07T04:21:48.471Z,18.83
2018-11-07T04:24:16.946Z,22.23
2018-11-07T04:26:45.460Z,24.70
2018-11-07T04:29:13.932Z,25.93
2018-11-07T04:31:42.668Z,25.03
2018-11-07T04:34:11.135Z,19.33
2018-11-07T04:36:39.644Z,25.70
2018-11-07T04:39:09.643Z,22.13
2018-11-07T04:41:38.115Z,20.73
2018-11-07T04:44:06.787Z,68.87
2018-11-07T04:46:35.271Z,22.00
2018-11-07T04:49:04.030Z,28.73
2018-11-07T04:51:32.655Z,20.30
2018-11-07T04:54:01.157Z,20.50
2018-11-07T04:56:29.655Z,23.30
2018-11-07T04:58:58.136Z,24.97
2018-11-07T05:01:26.668Z,22.37
2018-11-07T05:03:55.139Z,22.77
2018-11-07T05:06:23.716Z,22.20
2018-11-07T05:08:52.224Z,22.07
2018-11-07T05:11:20.915Z,21.13
2018-11-07T05:13:49.420Z,28.97
2018-11-07T05:16:17.936Z,25.50
2018-11-07T05:18:46.428Z,21.90
2018-11-07T05:21:15.076Z,25.40
2018-11-07T05:23:43.541Z,29.30
2018-11-07T05:26:12.183Z,22.93
2018-11-07T05:28:40.625Z,23.57
2018-11-07T05:31:09.106Z,25.20
2018-11-07T05:33:37.589Z,21.03
2018-11-07T05:36:06.984Z,22.43
2018-11-07T05:38:35.475Z,25.40
2018-11-07T05:41:03.977Z,24.50
2018-11-07T05:43:32.429Z,20.20
2018-11-07T05:46:00.900Z,25.60
2018-11-07T05:48:29.383Z,36.70
2018-11-07T05:50:58.111Z,24.50
2018-11-07T05:53:26.627Z,22.40
2018-11-07T05:55:55.306Z,29.00
2018-11-07T05:58:24.280Z,29.33
2018-11-07T06:00:52.845Z,31.40
2018-11-07T06:03:21.345Z,25.50
2018-11-07T06:05:49.887Z,37.90
2018-11-07T06:08:18.370Z,25.50
2018-11-07T06:10:46.846Z,25.70
2018-11-07T06:13:15.482Z,31.30
2018-11-07T06:15:43.964Z,34.30
2018-11-07T06:18:12.689Z,27.83
2018-11-07T06:20:41.168Z,32.93
2018-11-07T06:23:09.696Z,29.27
2018-11-07T06:25:38.511Z,40.90
2018-11-07T06:28:07.064Z,30.63
2018-11-07T06:30:35.721Z,24.40
2018-11-07T06:33:04.204Z,25.40
2018-11-07T06:35:32.716Z,35.10
2018-11-07T06:38:01.348Z,27.17
2018-11-07T06:40:29.836Z,31.67
2018-11-07T06:42:58.320Z,27.50
2018-11-07T06:45:26.821Z,56.90
2018-11-07T06:47:55.404Z,52.27
2018-11-07T06:50:23.893Z,173.43
2018-11-07T06:52:52.411Z,47.07
2018-11-07T06:55:20.931Z,24.73
2018-11-07T06:57:49.419Z,26.00
2018-11-07T07:00:18.448Z,25.47
2018-11-07T07:02:47.940Z,28.27
2018-11-07T07:05:16.739Z,22.77
2018-11-07T07:07:45.284Z,23.40
2018-11-07T07:10:15.214Z,29.82
2018-11-07T07:12:43.707Z,38.80
2018-11-07T07:15:13.829Z,32.50
2018-11-07T07:17:42.457Z,32.83
2018-11-07T07:20:13.688Z,39.42
2018-11-07T07:22:42.918Z,32.40
2018-11-07T07:25:12.423Z,39.48
2018-11-07T07:27:41.654Z,50.27
2018-11-07T07:30:12.850Z,37.35
2018-11-07T07:32:42.148Z,45.43
2018-11-07T07:35:10.785Z,33.58
2018-11-07T07:37:39.531Z,39.03
2018-11-07T07:40:09.603Z,31.00
2018-11-07T07:42:38.834Z,36.10
2018-11-07T07:45:09.415Z,36.23
2018-11-07T07:47:38.212Z,43.70
2018-11-07T07:50:08.278Z,43.95
2018-11-07T07:52:36.748Z,34.48
2018-11-07T07:55:05.588Z,36.23
2018-11-07T07:57:34.059Z,39.73
2018-11-07T08:00:02.573Z,34.35
2018-11-07T08:02:31.124Z,41.63
2018-11-07T08:04:59.612Z,42.87
2018-11-07T08:07:28.125Z,68.73
2018-11-07T08:09:56.614Z,58.00
2018-11-07T08:12:25.136Z,43.98
2018-11-07T08:14:53.615Z,47.90
2018-11-07T08:17:22.120Z,50.37
2018-11-07T08:19:50.699Z,47.67
2018-11-07T08:22:19.236Z,46.07
2018-11-07T08:24:47.691Z,44.60
2018-11-07T08:27:16.126Z,38.10
2018-11-07T08:29:44.592Z,37.03
2018-11-07T08:32:13.083Z,31.70
2018-11-07T08:34:41.596Z,47.25
2018-11-07T08:37:10.122Z,32.93
2018-11-07T08:39:38.588Z,30.67
2018-11-07T08:42:07.119Z,29.17
2018-11-07T08:44:35.551Z,31.37
2018-11-07T08:47:04.020Z,24.60
2018-11-07T08:49:32.496Z,18.43
2018-11-07T08:52:00.936Z,21.57
2018-11-07T08:54:29.424Z,23.37
2018-11-07T08:56:58.296Z,28.60
2018-11-07T08:59:26.852Z,29.57
2018-11-07T09:01:55.329Z,25.70
2018-11-07T09:04:23.817Z,24.50
2018-11-07T09:06:52.293Z,24.67
2018-11-07T09:09:20.875Z,21.05
2018-11-07T09:11:49.427Z,27.33
2018-11-07T09:14:17.921Z,38.85
2018-11-07T09:16:46.417Z,23.93
2018-11-07T09:19:15.173Z,26.33
2018-11-07T09:21:43.760Z,25.30
2018-11-07T09:24:12.887Z,27.83
2018-11-07T09:26:42.051Z,30.47
2018-11-07T09:29:10.585Z,26.23
2018-11-07T09:31:39.199Z,25.17
2018-11-07T09:34:07.684Z,19.10
2018-11-07T09:36:36.144Z,27.43
2018-11-07T09:39:07.007Z,30.32
2018-11-07T09:41:35.506Z,31.90
2018-11-07T09:44:04.351Z,33.90
2018-11-07T09:46:33.539Z,23.73
2018-11-07T09:49:02.043Z,19.67
2018-11-07T09:51:31.163Z,28.63
2018-11-07T09:54:00.485Z,24.70
2018-11-07T09:56:28.871Z,21.30
2018-11-07T09:58:57.393Z,23.43
2018-11-07T10:01:26.365Z,23.53
2018-11-07T10:03:55.089Z,29.93
2018-11-07T10:06:23.644Z,21.02
2018-11-07T10:08:52.089Z,25.83
2018-11-07T10:11:20.605Z,22.10
2018-11-07T10:13:49.104Z,20.73
2018-11-07T10:16:17.653Z,29.10
2018-11-07T10:18:46.119Z,20.70
2018-11-07T10:21:14.631Z,27.47
2018-11-07T10:23:43.160Z,43.83
2018-11-07T10:26:11.669Z,15.80
2018-11-07T10:28:40.358Z,17.37
2018-11-07T10:31:08.832Z,17.90
2018-11-07T10:33:37.564Z,21.87
2018-11-07T10:36:06.026Z,21.30
2018-11-07T10:38:34.767Z,21.50
2018-11-07T10:41:03.145Z,20.50
2018-11-07T10:43:31.687Z,15.30
2018-11-07T10:46:00.217Z,14.27
2018-11-07T10:48:28.669Z,14.53
2018-11-07T10:50:57.137Z,19.17
2018-11-07T10:53:25.608Z,15.83
2018-11-07T10:55:54.131Z,15.50
2018-11-07T10:58:22.679Z,14.80
2018-11-07T11:00:56.474Z,14.87
2018-11-07T11:03:30.339Z,17.30
2018-11-07T11:05:59.032Z,13.77
2018-11-07T11:08:27.780Z,13.53
2018-11-07T11:10:56.260Z,14.83
2018-11-07T11:13:25.911Z,11.70
2018-11-07T11:15:54.376Z,14.03
2018-11-07T11:18:22.843Z,11.80
2018-11-07T11:20:51.364Z,13.07
2018-11-07T11:23:19.916Z,18.10
2018-11-07T11:25:48.436Z,20.20
2018-11-07T11:28:16.898Z,19.65
2018-11-07T11:30:45.664Z,14.53
2018-11-07T11:33:14.804Z,14.57
2018-11-07T11:35:43.287Z,12.63
2018-11-07T11:38:11.774Z,12.43
2018-11-07T11:40:40.263Z,11.28
2018-11-07T11:43:09.015Z,12.10
2018-11-07T11:45:37.530Z,17.00
2018-11-07T11:48:06.356Z,12.43
2018-11-07T11:50:34.836Z,27.30
2018-11-07T11:53:03.348Z,15.33
2018-11-07T11:55:31.840Z,17.83
2018-11-07T11:58:00.326Z,16.60
2018-11-07T12:00:29.010Z,14.13
2018-11-07T12:02:57.738Z,15.10
2018-11-07T12:05:26.401Z,18.87
2018-11-07T12:07:54.875Z,12.23
2018-11-07T12:10:24.841Z,20.37
2018-11-07T12:12:54.656Z,17.98
2018-11-07T12:15:24.487Z,17.47
2018-11-07T12:17:53.642Z,19.85
2018-11-07T12:20:22.630Z,21.00
2018-11-07T12:22:51.686Z,23.50
2018-11-07T12:25:21.064Z,20.60
2018-11-07T12:27:49.571Z,21.52
2018-11-07T12:30:20.822Z,16.40
2018-11-07T12:32:50.303Z,22.93
2018-11-07T12:35:19.272Z,17.77
2018-11-07T12:37:48.159Z,19.65
2018-11-07T12:40:17.180Z,26.43
2018-11-07T12:42:46.265Z,16.17
2018-11-07T12:45:15.789Z,17.13
2018-11-07T12:47:44.320Z,21.37
2018-11-07T12:50:15.233Z,17.03
2018-11-07T12:52:44.657Z,18.20
2018-11-07T12:55:13.624Z,33.27
2018-11-07T12:57:42.545Z,20.17
2018-11-07T13:00:14.575Z,21.10
2018-11-07T13:02:43.132Z,19.30
2018-11-07T13:05:13.316Z,20.97
2018-11-07T13:07:42.594Z,25.17
2018-11-07T13:10:14.235Z,21.60
2018-11-07T13:12:43.888Z,18.37
2018-11-07T13:15:12.983Z,21.70
2018-11-07T13:17:41.721Z,23.40
2018-11-07T13:20:13.364Z,16.50
2018-11-07T13:22:42.709Z,23.67
2018-11-07T13:25:12.340Z,22.17
2018-11-07T13:27:41.020Z,18.37
2018-11-07T13:30:12.084Z,21.27
2018-11-07T13:32:41.143Z,17.30
2018-11-07T13:35:10.759Z,18.50
2018-11-07T13:37:40.409Z,18.83
2018-11-07T13:40:12.437Z,22.57
2018-11-07T13:42:41.475Z,18.20
2018-11-07T13:45:12.112Z,21.43
2018-11-07T13:47:41.789Z,26.10
2018-11-07T13:50:11.189Z,25.93
2018-11-07T13:52:40.218Z,17.00
2018-11-07T13:55:10.119Z,17.57
2018-11-07T13:57:39.423Z,21.67
2018-11-07T14:00:13.232Z,20.40
2018-11-07T14:02:41.828Z,23.93
2018-11-07T14:05:11.331Z,18.67
2018-11-07T14:07:40.231Z,24.80
2018-11-07T14:10:11.771Z,27.00
2018-11-07T14:12:41.009Z,25.35
2018-11-07T14:15:12.447Z,27.80
2018-11-07T14:17:41.576Z,31.40
2018-11-07T14:20:10.392Z,30.73
2018-11-07T14:22:39.511Z,43.07
2018-11-07T14:25:09.238Z,31.47
2018-11-07T14:27:38.217Z,35.30
2018-11-07T14:30:11.131Z,27.17
2018-11-07T14:32:45.746Z,27.80
2018-11-07T14:35:14.645Z,25.67
2018-11-07T14:37:43.356Z,28.70
2018-11-07T14:40:11.966Z,26.10
2018-11-07T14:42:40.739Z,34.70
2018-11-07T14:45:10.882Z,26.17
2018-11-07T14:47:39.931Z,41.40
2018-11-07T14:50:09.516Z,33.02
2018-11-07T14:52:38.539Z,37.43
2018-11-07T14:55:09.004Z,42.27
2018-11-07T14:57:37.813Z,41.77
2018-11-07T15:00:12.452Z,42.03
2018-11-07T15:02:42.339Z,33.50
2018-11-07T15:05:12.255Z,36.67
2018-11-07T15:07:41.373Z,31.93
2018-11-07T15:10:11.024Z,34.10
2018-11-07T15:12:39.709Z,31.77
2018-11-07T15:15:10.242Z,38.77
2018-11-07T15:17:38.688Z,36.67
2018-11-07T15:20:08.278Z,40.30
2018-11-07T15:22:36.818Z,37.10
2018-11-07T15:25:06.059Z,34.38
2018-11-07T15:27:34.739Z,36.70
2018-11-07T15:30:03.488Z,46.67
2018-11-07T15:32:31.980Z,37.33
2018-11-07T15:35:00.437Z,42.30
2018-11-07T15:37:28.965Z,41.83
2018-11-07T15:39:58.453Z,40.95
2018-11-07T15:42:26.992Z,44.57
2018-11-07T15:44:55.460Z,59.50
2018-11-07T15:47:23.996Z,35.65
2018-11-07T15:49:57.638Z,41.83
2018-11-07T15:52:26.177Z,37.10
2018-11-07T15:54:54.635Z,40.20
2018-11-07T15:57:23.120Z,43.67
2018-11-07T15:59:51.616Z,52.40
2018-11-07T16:02:20.207Z,58.02
2018-11-07T16:04:48.675Z,56.70
2018-11-07T16:07:17.269Z,48.90
2018-11-07T16:09:45.741Z,45.37
2018-11-07T16:12:14.204Z,48.40
2018-11-07T16:14:42.672Z,51.93
2018-11-07T16:17:11.164Z,41.97
2018-11-07T16:19:40.016Z,45.13
2018-11-07T16:22:08.609Z,69.33
2018-11-07T16:24:37.080Z,47.70
2018-11-07T16:27:06.108Z,49.23
2018-11-07T16:29:34.573Z,45.97
2018-11-07T16:32:03.176Z,53.83
2018-11-07T16:34:31.637Z,53.33
2018-11-07T16:37:00.179Z,53.10
2018-11-07T16:39:28.630Z,46.80
2018-11-07T16:42:03.465Z,48.07
2018-11-07T16:44:32.032Z,52.43
2018-11-07T16:47:00.510Z,47.20
2018-11-07T16:49:29.003Z,46.60
2018-11-07T16:51:57.486Z,55.70
2018-11-07T16:54:25.994Z,49.10
2018-11-07T16:56:54.467Z,60.37
2018-11-07T16:59:22.943Z,50.70
2018-11-07T17:01:51.468Z,53.70
2018-11-07T17:04:20.234Z,50.20
2018-11-07T17:06:48.762Z,51.33
2018-11-07T17:09:17.247Z,54.13
2018-11-07T17:11:45.731Z,49.95
2018-11-07T17:14:14.513Z,64.40
2018-11-07T17:16:43.026Z,63.70
2018-11-07T17:19:12.029Z,51.13
2018-11-07T17:21:40.821Z,61.37
2018-11-07T17:24:09.391Z,53.60
2018-11-07T17:26:37.869Z,53.60
2018-11-07T17:29:06.475Z,53.37
2018-11-07T17:31:34.955Z,50.63
2018-11-07T17:34:03.804Z,64.23
2018-11-07T17:36:32.515Z,63.27
2018-11-07T17:39:01.021Z,56.93
2018-11-07T17:41:29.508Z,50.43
2018-11-07T17:43:58.105Z,56.87
2018-11-07T17:46:26.596Z,60.90
2018-11-07T17:48:55.089Z,56.53
2018-11-07T17:51:23.597Z,60.60
2018-11-07T17:53:52.135Z,69.50
2018-11-07T17:56:20.920Z,47.33
2018-11-07T17:58:49.614Z,50.60
2018-11-07T18:01:18.384Z,56.13
2018-11-07T18:03:46.880Z,59.13
2018-11-07T18:06:15.435Z,49.73
2018-11-07T18:08:44.127Z,58.17
2018-11-07T18:11:12.930Z,76.70
2018-11-07T18:13:42.241Z,59.80
2018-11-07T18:16:10.802Z,56.80
2018-11-07T18:18:40.286Z,54.93
2018-11-07T18:21:08.911Z,53.23
2018-11-07T18:23:37.774Z,61.70
2018-11-07T18:26:06.616Z,64.93
2018-11-07T18:28:35.387Z,61.60
2018-11-07T18:31:04.372Z,65.07
2018-11-07T18:33:32.960Z,59.27
2018-11-07T18:36:01.765Z,60.90
2018-11-07T18:38:30.383Z,53.42
2018-11-07T18:40:59.641Z,64.40
2018-11-07T18:43:28.157Z,52.87
2018-11-07T18:45:56.663Z,61.17
2018-11-07T18:48:25.411Z,53.80
2018-11-07T18:50:54.235Z,70.20
2018-11-07T18:53:22.693Z,55.73
2018-11-07T18:55:51.207Z,64.23
2018-11-07T18:58:19.707Z,58.80
2018-11-07T19:00:48.714Z,62.13
2018-11-07T19:03:17.227Z,61.80
2018-11-07T19:05:45.818Z,56.73
2018-11-07T19:08:14.678Z,52.97
2018-11-07T19:10:43.954Z,66.43
2018-11-07T19:13:12.468Z,67.45
2018-11-07T19:15:40.959Z,55.17
2018-11-07T19:18:10.402Z,57.03
2018-11-07T19:20:38.962Z,52.88
2018-11-07T19:23:07.405Z,78.83
2018-11-07T19:25:35.878Z,93.67
2018-11-07T19:28:04.877Z,67.60
2018-11-07T19:30:33.360Z,77.17
2018-11-07T19:33:02.227Z,51.98
2018-11-07T19:35:30.933Z,45.73
2018-11-07T19:37:59.625Z,54.80
2018-11-07T19:40:28.468Z,48.75
2018-11-07T19:42:56.912Z,58.50
2018-11-07T19:45:25.401Z,60.43
2018-11-07T19:47:53.947Z,85.03
2018-11-07T19:50:23.523Z,50.53
2018-11-07T19:52:52.847Z,62.23
2018-11-07T19:55:23.100Z,65.07
2018-11-07T19:57:54.430Z,56.00
2018-11-07T20:00:23.225Z,56.90
2018-11-07T20:02:51.896Z,59.30
2018-11-07T20:05:20.647Z,57.37
2018-11-07T20:07:49.170Z,55.13
2018-11-07T20:10:19.528Z,65.87
2018-11-07T20:12:48.495Z,55.63
2018-11-07T20:15:18.487Z,53.00
2018-11-07T20:17:47.204Z,62.30
2018-11-07T20:20:16.087Z,55.40
2018-11-07T20:22:44.812Z,60.25
2018-11-07T20:25:14.049Z,62.27
2018-11-07T20:27:43.263Z,71.70
2018-11-07T20:30:13.649Z,91.60
2018-11-07T20:32:42.848Z,124.07
2018-11-07T20:35:12.936Z,277.70
2018-11-07T20:37:41.959Z,208.90
2018-11-07T20:40:13.685Z,210.30
2018-11-07T20:42:42.420Z,122.30
2018-11-07T20:45:12.004Z,76.07
2018-11-07T20:47:40.729Z,72.13
2018-11-07T20:50:12.135Z,65.03
2018-11-07T20:52:41.128Z,79.87
2018-11-07T20:55:10.392Z,60.20
2018-11-07T20:57:38.928Z,75.67
2018-11-07T21:00:11.889Z,64.03
2018-11-07T21:02:40.893Z,58.00
2018-11-07T21:05:09.783Z,59.33
2018-11-07T21:07:39.627Z,66.70
2018-11-07T21:10:13.021Z,69.40
2018-11-07T21:12:42.216Z,65.70
2018-11-07T21:15:11.886Z,78.47
2018-11-07T21:17:41.507Z,77.87
2018-11-07T21:20:40.629Z,63.90
2018-11-07T21:23:09.132Z,60.47
2018-11-07T21:25:37.615Z,70.60
2018-11-07T21:28:06.143Z,75.07
2018-11-07T21:30:34.814Z,69.83
2018-11-07T21:33:03.252Z,65.63
2018-11-07T21:35:31.709Z,74.32
2018-11-07T21:38:00.180Z,61.67
2018-11-07T21:40:28.676Z,74.07
2018-11-07T21:42:57.215Z,70.87
2018-11-07T21:45:25.743Z,71.83
2018-11-07T21:47:54.230Z,62.47
2018-11-07T21:50:22.745Z,62.70
2018-11-07T21:52:51.259Z,70.75
2018-11-07T21:55:19.747Z,71.97
2018-11-07T21:57:48.775Z,60.50
2018-11-07T22:00:18.615Z,67.73
2018-11-07T22:02:47.325Z,57.53
2018-11-07T22:05:17.021Z,66.30
2018-11-07T22:07:46.728Z,53.80
2018-11-07T22:10:16.786Z,57.17
2018-11-07T22:12:45.611Z,69.40
2018-11-07T22:15:14.139Z,69.83
2018-11-07T22:17:42.591Z,59.97
2018-11-07T22:20:14.132Z,55.93
2018-11-07T22:22:42.958Z,62.87
2018-11-07T22:25:11.771Z,49.63
2018-11-07T22:27:40.235Z,61.53
2018-11-07T22:30:10.757Z,63.90
2018-11-07T22:32:39.982Z,64.73
2018-11-07T22:35:10.149Z,56.70
2018-11-07T22:37:38.673Z,65.27
2018-11-07T22:40:09.040Z,62.62
2018-11-07T22:42:37.548Z,52.20
2018-11-07T22:45:06.755Z,48.55
2018-11-07T22:47:35.784Z,60.17
2018-11-07T22:50:04.484Z,60.30
2018-11-07T22:52:32.981Z,56.43
2018-11-07T22:55:01.496Z,66.63
2018-11-07T22:57:30.017Z,60.10
2018-11-07T22:59:58.690Z,63.65
2018-11-07T23:02:27.194Z,59.47
2018-11-07T23:05:58.249Z,75.47
2018-11-07T23:08:27.000Z,86.37
2018-11-07T23:10:55.474Z,78.77
2018-11-07T23:13:24.396Z,75.20
2018-11-07T23:15:52.911Z,73.57
2018-11-07T23:18:21.696Z,79.47
2018-11-07T23:20:50.157Z,89.73
2018-11-07T23:23:18.621Z,72.50
2018-11-07T23:25:47.534Z,77.60
2018-11-07T23:28:16.036Z,69.60
2018-11-07T23:30:44.640Z,77.63
2018-11-07T23:33:13.104Z,73.33
2018-11-07T23:35:41.597Z,77.37
2018-11-07T23:38:10.074Z,66.40
2018-11-07T23:40:38.573Z,62.00
2018-11-07T23:43:07.061Z,70.32
2018-11-07T23:45:35.572Z,68.63
2018-11-07T23:48:04.041Z,87.33
2018-11-07T23:50:32.535Z,72.60
2018-11-07T23:53:01.033Z,72.07
2018-11-07T23:55:29.504Z,67.45
2018-11-07T23:57:58.220Z,81.23
